sensor_id;sensor_type;location;lat;lon;timestamp;P1;durP1;ratioP1;P2;durP2;ratioP2
80187;SDS011;73735;52.134;5.436;2024-01-30T00:00:25;14.90;;;8.32;;
80187;SDS011;73735;52.134;5.436;2024-01-30T00:02:51;18.17;;;8.38;;
80187;SDS011;73735;52.134;5.436;2024-01-30T00:05:17;15.95;;;8.90;;
80187;SDS011;73735;52.134;5.436;2024-01-30T00:07:44;15.23;;;8.13;;
80187;SDS011;73735;52.134;5.436;2024-01-30T00:10:11;14.10;;;8.52;;
80187;SDS011;73735;52.134;5.436;2024-01-30T00:12:37;15.05;;;8.27;;
80187;SDS011;73735;52.134;5.436;2024-01-30T00:15:04;16.92;;;7.85;;
80187;SDS011;73735;52.134;5.436;2024-01-30T00:17:31;16.88;;;8.98;;
80187;SDS011;73735;52.134;5.436;2024-01-30T00:19:57;16.00;;;8.57;;
80187;SDS011;73735;52.134;5.436;2024-01-30T00:22:24;14.45;;;7.95;;
80187;SDS011;73735;52.134;5.436;2024-01-30T00:24:50;13.77;;;8.02;;
80187;SDS011;73735;52.134;5.436;2024-01-30T00:27:17;15.57;;;8.30;;
80187;SDS011;73735;52.134;5.436;2024-01-30T00:29:43;14.35;;;7.88;;
80187;SDS011;73735;52.134;5.436;2024-01-30T00:32:10;16.85;;;8.65;;
80187;SDS011;73735;52.134;5.436;2024-01-30T00:34:36;14.75;;;8.18;;
80187;SDS011;73735;52.134;5.436;2024-01-30T00:37:03;14.07;;;8.05;;
80187;SDS011;73735;52.134;5.436;2024-01-30T00:39:29;14.27;;;8.07;;
80187;SDS011;73735;52.134;5.436;2024-01-30T00:41:56;14.18;;;8.00;;
80187;SDS011;73735;52.134;5.436;2024-01-30T00:44:22;12.57;;;7.75;;
80187;SDS011;73735;52.134;5.436;2024-01-30T00:46:49;14.27;;;7.82;;
80187;SDS011;73735;52.134;5.436;2024-01-30T00:49:15;12.95;;;8.25;;
80187;SDS011;73735;52.134;5.436;2024-01-30T00:51:42;14.57;;;8.10;;
80187;SDS011;73735;52.134;5.436;2024-01-30T00:54:08;12.43;;;7.40;;
80187;SDS011;73735;52.134;5.436;2024-01-30T00:56:35;16.33;;;8.40;;
80187;SDS011;73735;52.134;5.436;2024-01-30T00:59:01;13.80;;;7.43;;
80187;SDS011;73735;52.134;5.436;2024-01-30T01:01:28;13.63;;;8.15;;
80187;SDS011;73735;52.134;5.436;2024-01-30T01:03:55;14.65;;;7.68;;
80187;SDS011;73735;52.134;5.436;2024-01-30T01:06:21;13.57;;;7.65;;
80187;SDS011;73735;52.134;5.436;2024-01-30T01:08:48;15.13;;;8.02;;
80187;SDS011;73735;52.134;5.436;2024-01-30T01:11:14;14.00;;;7.68;;
80187;SDS011;73735;52.134;5.436;2024-01-30T01:13:41;13.45;;;7.40;;
80187;SDS011;73735;52.134;5.436;2024-01-30T01:16:07;17.13;;;7.57;;
80187;SDS011;73735;52.134;5.436;2024-01-30T01:18:34;15.05;;;7.85;;
80187;SDS011;73735;52.134;5.436;2024-01-30T01:21:00;15.18;;;7.40;;
80187;SDS011;73735;52.134;5.436;2024-01-30T01:23:27;13.02;;;7.53;;
80187;SDS011;73735;52.134;5.436;2024-01-30T01:25:53;15.18;;;8.07;;
80187;SDS011;73735;52.134;5.436;2024-01-30T01:28:23;12.43;;;7.55;;
80187;SDS011;73735;52.134;5.436;2024-01-30T01:30:50;12.70;;;7.28;;
80187;SDS011;73735;52.134;5.436;2024-01-30T01:33:17;13.93;;;7.43;;
80187;SDS011;73735;52.134;5.436;2024-01-30T01:35:44;11.90;;;6.05;;
80187;SDS011;73735;52.134;5.436;2024-01-30T01:38:10;12.60;;;7.47;;
80187;SDS011;73735;52.134;5.436;2024-01-30T01:40:37;14.05;;;7.30;;
80187;SDS011;73735;52.134;5.436;2024-01-30T01:43:05;13.15;;;6.65;;
80187;SDS011;73735;52.134;5.436;2024-01-30T01:45:32;15.45;;;7.05;;
80187;SDS011;73735;52.134;5.436;2024-01-30T01:47:59;12.63;;;7.50;;
80187;SDS011;73735;52.134;5.436;2024-01-30T01:50:25;13.55;;;6.35;;
80187;SDS011;73735;52.134;5.436;2024-01-30T01:52:52;13.50;;;7.13;;
80187;SDS011;73735;52.134;5.436;2024-01-30T01:55:20;12.18;;;6.68;;
80187;SDS011;73735;52.134;5.436;2024-01-30T01:57:48;14.35;;;6.90;;
80187;SDS011;73735;52.134;5.436;2024-01-30T02:00:15;12.38;;;6.50;;
80187;SDS011;73735;52.134;5.436;2024-01-30T02:05:09;11.73;;;6.07;;
80187;SDS011;73735;52.134;5.436;2024-01-30T02:07:36;12.43;;;6.80;;
80187;SDS011;73735;52.134;5.436;2024-01-30T02:12:30;13.23;;;6.72;;
80187;SDS011;73735;52.134;5.436;2024-01-30T02:14:57;11.57;;;5.65;;
80187;SDS011;73735;52.134;5.436;2024-01-30T02:17:23;14.23;;;6.88;;
80187;SDS011;73735;52.134;5.436;2024-01-30T02:19:50;14.05;;;6.75;;
80187;SDS011;73735;52.134;5.436;2024-01-30T02:22:17;12.25;;;6.45;;
80187;SDS011;73735;52.134;5.436;2024-01-30T02:24:44;13.55;;;6.53;;
80187;SDS011;73735;52.134;5.436;2024-01-30T02:27:11;12.30;;;6.20;;
80187;SDS011;73735;52.134;5.436;2024-01-30T02:29:37;12.63;;;6.70;;
80187;SDS011;73735;52.134;5.436;2024-01-30T02:32:04;13.88;;;6.45;;
80187;SDS011;73735;52.134;5.436;2024-01-30T02:34:31;12.23;;;6.75;;
80187;SDS011;73735;52.134;5.436;2024-01-30T02:36:58;9.85;;;6.15;;
80187;SDS011;73735;52.134;5.436;2024-01-30T02:39:25;11.43;;;6.72;;
80187;SDS011;73735;52.134;5.436;2024-01-30T02:41:51;11.38;;;6.38;;
80187;SDS011;73735;52.134;5.436;2024-01-30T02:44:18;11.73;;;6.03;;
80187;SDS011;73735;52.134;5.436;2024-01-30T02:46:44;10.85;;;5.97;;
80187;SDS011;73735;52.134;5.436;2024-01-30T02:49:10;10.98;;;6.47;;
80187;SDS011;73735;52.134;5.436;2024-01-30T02:51:37;12.48;;;6.95;;
80187;SDS011;73735;52.134;5.436;2024-01-30T02:54:03;11.57;;;5.93;;
80187;SDS011;73735;52.134;5.436;2024-01-30T02:56:30;13.05;;;6.60;;
80187;SDS011;73735;52.134;5.436;2024-01-30T02:58:57;10.75;;;6.15;;
80187;SDS011;73735;52.134;5.436;2024-01-30T03:01:23;11.63;;;6.05;;
80187;SDS011;73735;52.134;5.436;2024-01-30T03:03:50;12.93;;;7.45;;
80187;SDS011;73735;52.134;5.436;2024-01-30T03:06:17;10.60;;;6.13;;
80187;SDS011;73735;52.134;5.436;2024-01-30T03:08:46;14.98;;;7.10;;
80187;SDS011;73735;52.134;5.436;2024-01-30T03:11:12;12.85;;;6.47;;
80187;SDS011;73735;52.134;5.436;2024-01-30T03:13:39;13.93;;;7.80;;
80187;SDS011;73735;52.134;5.436;2024-01-30T03:16:05;14.68;;;7.97;;
80187;SDS011;73735;52.134;5.436;2024-01-30T03:18:32;15.38;;;7.60;;
80187;SDS011;73735;52.134;5.436;2024-01-30T03:20:58;15.48;;;8.48;;
80187;SDS011;73735;52.134;5.436;2024-01-30T03:23:25;17.90;;;9.00;;
80187;SDS011;73735;52.134;5.436;2024-01-30T03:25:51;14.43;;;9.05;;
80187;SDS011;73735;52.134;5.436;2024-01-30T03:28:18;15.18;;;9.02;;
80187;SDS011;73735;52.134;5.436;2024-01-30T03:30:44;14.75;;;8.65;;
80187;SDS011;73735;52.134;5.436;2024-01-30T03:33:11;14.82;;;9.20;;
80187;SDS011;73735;52.134;5.436;2024-01-30T03:35:37;16.05;;;9.00;;
80187;SDS011;73735;52.134;5.436;2024-01-30T03:38:04;15.07;;;9.20;;
80187;SDS011;73735;52.134;5.436;2024-01-30T03:40:30;14.40;;;8.32;;
80187;SDS011;73735;52.134;5.436;2024-01-30T03:42:57;18.08;;;8.95;;
80187;SDS011;73735;52.134;5.436;2024-01-30T03:45:24;14.98;;;8.10;;
80187;SDS011;73735;52.134;5.436;2024-01-30T03:47:50;17.35;;;7.95;;
80187;SDS011;73735;52.134;5.436;2024-01-30T03:50:17;14.10;;;8.27;;
80187;SDS011;73735;52.134;5.436;2024-01-30T03:52:43;13.50;;;8.07;;
80187;SDS011;73735;52.134;5.436;2024-01-30T03:55:10;13.85;;;7.28;;
80187;SDS011;73735;52.134;5.436;2024-01-30T03:57:36;15.00;;;7.38;;
80187;SDS011;73735;52.134;5.436;2024-01-30T04:00:02;13.02;;;7.05;;
80187;SDS011;73735;52.134;5.436;2024-01-30T04:02:31;13.85;;;6.93;;
80187;SDS011;73735;52.134;5.436;2024-01-30T04:04:57;13.38;;;7.45;;
80187;SDS011;73735;52.134;5.436;2024-01-30T04:07:25;11.27;;;6.05;;
80187;SDS011;73735;52.134;5.436;2024-01-30T04:09:51;12.02;;;6.63;;
80187;SDS011;73735;52.134;5.436;2024-01-30T04:12:18;10.93;;;6.45;;
80187;SDS011;73735;52.134;5.436;2024-01-30T04:14:44;13.00;;;6.20;;
80187;SDS011;73735;52.134;5.436;2024-01-30T04:17:11;12.13;;;5.72;;
80187;SDS011;73735;52.134;5.436;2024-01-30T04:19:37;13.05;;;6.30;;
80187;SDS011;73735;52.134;5.436;2024-01-30T04:22:05;11.48;;;6.07;;
80187;SDS011;73735;52.134;5.436;2024-01-30T04:24:31;11.38;;;6.18;;
80187;SDS011;73735;52.134;5.436;2024-01-30T04:26:58;10.68;;;5.60;;
80187;SDS011;73735;52.134;5.436;2024-01-30T04:29:24;11.07;;;5.63;;
80187;SDS011;73735;52.134;5.436;2024-01-30T04:31:51;10.95;;;6.32;;
80187;SDS011;73735;52.134;5.436;2024-01-30T04:34:17;10.50;;;5.85;;
80187;SDS011;73735;52.134;5.436;2024-01-30T04:36:44;13.85;;;6.53;;
80187;SDS011;73735;52.134;5.436;2024-01-30T04:39:11;10.35;;;5.55;;
80187;SDS011;73735;52.134;5.436;2024-01-30T04:41:38;12.27;;;5.43;;
80187;SDS011;73735;52.134;5.436;2024-01-30T04:44:05;10.18;;;5.60;;
80187;SDS011;73735;52.134;5.436;2024-01-30T04:46:32;11.25;;;5.93;;
80187;SDS011;73735;52.134;5.436;2024-01-30T04:49:00;13.48;;;6.40;;
80187;SDS011;73735;52.134;5.436;2024-01-30T04:51:27;12.25;;;5.47;;
80187;SDS011;73735;52.134;5.436;2024-01-30T04:53:53;9.00;;;5.70;;
80187;SDS011;73735;52.134;5.436;2024-01-30T04:56:20;10.40;;;5.75;;
80187;SDS011;73735;52.134;5.436;2024-01-30T04:58:46;9.57;;;5.50;;
80187;SDS011;73735;52.134;5.436;2024-01-30T05:01:16;11.40;;;6.20;;
80187;SDS011;73735;52.134;5.436;2024-01-30T05:03:43;11.05;;;5.30;;
80187;SDS011;73735;52.134;5.436;2024-01-30T05:06:10;11.10;;;5.70;;
80187;SDS011;73735;52.134;5.436;2024-01-30T05:08:37;11.70;;;5.88;;
80187;SDS011;73735;52.134;5.436;2024-01-30T05:11:06;10.30;;;5.57;;
80187;SDS011;73735;52.134;5.436;2024-01-30T05:13:33;9.00;;;4.90;;
80187;SDS011;73735;52.134;5.436;2024-01-30T05:16:01;10.70;;;5.70;;
80187;SDS011;73735;52.134;5.436;2024-01-30T05:18:29;10.38;;;5.55;;
80187;SDS011;73735;52.134;5.436;2024-01-30T05:20:56;10.95;;;5.38;;
80187;SDS011;73735;52.134;5.436;2024-01-30T05:23:22;11.05;;;5.93;;
80187;SDS011;73735;52.134;5.436;2024-01-30T05:25:48;10.50;;;4.55;;
80187;SDS011;73735;52.134;5.436;2024-01-30T05:28:15;12.27;;;5.72;;
80187;SDS011;73735;52.134;5.436;2024-01-30T05:30:41;12.95;;;5.88;;
80187;SDS011;73735;52.134;5.436;2024-01-30T05:33:08;10.20;;;5.60;;
80187;SDS011;73735;52.134;5.436;2024-01-30T05:35:36;11.30;;;5.57;;
80187;SDS011;73735;52.134;5.436;2024-01-30T05:38:02;12.75;;;6.05;;
80187;SDS011;73735;52.134;5.436;2024-01-30T05:40:29;10.35;;;5.68;;
80187;SDS011;73735;52.134;5.436;2024-01-30T05:42:59;11.45;;;5.82;;
80187;SDS011;73735;52.134;5.436;2024-01-30T05:45:27;11.35;;;5.40;;
80187;SDS011;73735;52.134;5.436;2024-01-30T05:47:53;12.60;;;5.80;;
80187;SDS011;73735;52.134;5.436;2024-01-30T05:50:20;8.93;;;5.22;;
80187;SDS011;73735;52.134;5.436;2024-01-30T05:52:49;12.90;;;7.40;;
80187;SDS011;73735;52.134;5.436;2024-01-30T05:55:15;10.65;;;5.82;;
80187;SDS011;73735;52.134;5.436;2024-01-30T05:57:42;10.43;;;5.75;;
80187;SDS011;73735;52.134;5.436;2024-01-30T06:00:08;10.77;;;5.65;;
80187;SDS011;73735;52.134;5.436;2024-01-30T06:02:35;10.00;;;5.72;;
80187;SDS011;73735;52.134;5.436;2024-01-30T06:05:02;10.13;;;4.93;;
80187;SDS011;73735;52.134;5.436;2024-01-30T06:07:28;10.25;;;5.72;;
80187;SDS011;73735;52.134;5.436;2024-01-30T06:10:01;11.88;;;5.70;;
80187;SDS011;73735;52.134;5.436;2024-01-30T06:14:55;11.70;;;5.15;;
80187;SDS011;73735;52.134;5.436;2024-01-30T06:17:23;9.15;;;5.10;;
80187;SDS011;73735;52.134;5.436;2024-01-30T06:19:50;9.90;;;5.50;;
80187;SDS011;73735;52.134;5.436;2024-01-30T06:22:16;10.20;;;5.30;;
80187;SDS011;73735;52.134;5.436;2024-01-30T06:24:43;10.18;;;6.10;;
80187;SDS011;73735;52.134;5.436;2024-01-30T06:27:11;10.50;;;5.93;;
80187;SDS011;73735;52.134;5.436;2024-01-30T06:29:38;12.50;;;6.05;;
80187;SDS011;73735;52.134;5.436;2024-01-30T06:32:04;10.95;;;5.93;;
80187;SDS011;73735;52.134;5.436;2024-01-30T06:34:31;10.05;;;5.40;;
80187;SDS011;73735;52.134;5.436;2024-01-30T06:36:58;11.07;;;5.18;;
80187;SDS011;73735;52.134;5.436;2024-01-30T06:39:24;11.48;;;5.50;;
80187;SDS011;73735;52.134;5.436;2024-01-30T06:41:51;14.02;;;5.65;;
80187;SDS011;73735;52.134;5.436;2024-01-30T06:44:17;10.60;;;5.32;;
80187;SDS011;73735;52.134;5.436;2024-01-30T06:46:44;10.32;;;5.57;;
80187;SDS011;73735;52.134;5.436;2024-01-30T06:49:10;11.07;;;5.70;;
80187;SDS011;73735;52.134;5.436;2024-01-30T06:51:37;10.27;;;5.72;;
80187;SDS011;73735;52.134;5.436;2024-01-30T06:54:03;10.65;;;5.93;;
80187;SDS011;73735;52.134;5.436;2024-01-30T06:56:30;11.13;;;5.95;;
80187;SDS011;73735;52.134;5.436;2024-01-30T06:58:56;11.45;;;5.70;;
80187;SDS011;73735;52.134;5.436;2024-01-30T07:01:28;13.18;;;5.93;;
80187;SDS011;73735;52.134;5.436;2024-01-30T07:03:56;13.10;;;5.80;;
80187;SDS011;73735;52.134;5.436;2024-01-30T07:06:24;11.50;;;6.15;;
80187;SDS011;73735;52.134;5.436;2024-01-30T07:08:50;11.30;;;5.80;;
80187;SDS011;73735;52.134;5.436;2024-01-30T07:11:20;11.98;;;5.78;;
80187;SDS011;73735;52.134;5.436;2024-01-30T07:13:50;12.55;;;7.40;;
80187;SDS011;73735;52.134;5.436;2024-01-30T07:16:17;10.60;;;5.40;;
80187;SDS011;73735;52.134;5.436;2024-01-30T07:18:44;10.07;;;4.95;;
80187;SDS011;73735;52.134;5.436;2024-01-30T07:21:12;11.60;;;5.80;;
80187;SDS011;73735;52.134;5.436;2024-01-30T07:23:38;11.82;;;5.93;;
80187;SDS011;73735;52.134;5.436;2024-01-30T07:26:05;10.32;;;5.65;;
80187;SDS011;73735;52.134;5.436;2024-01-30T07:28:33;10.38;;;5.18;;
80187;SDS011;73735;52.134;5.436;2024-01-30T07:31:00;13.45;;;6.10;;
80187;SDS011;73735;52.134;5.436;2024-01-30T07:35:53;9.52;;;5.55;;
80187;SDS011;73735;52.134;5.436;2024-01-30T07:38:20;9.80;;;5.03;;
80187;SDS011;73735;52.134;5.436;2024-01-30T07:40:46;11.55;;;5.18;;
80187;SDS011;73735;52.134;5.436;2024-01-30T07:43:13;11.82;;;5.68;;
80187;SDS011;73735;52.134;5.436;2024-01-30T07:45:39;9.27;;;5.28;;
80187;SDS011;73735;52.134;5.436;2024-01-30T07:48:06;10.80;;;5.70;;
80187;SDS011;73735;52.134;5.436;2024-01-30T07:50:33;11.50;;;5.63;;
80187;SDS011;73735;52.134;5.436;2024-01-30T07:53:00;10.98;;;5.68;;
80187;SDS011;73735;52.134;5.436;2024-01-30T07:55:26;11.80;;;5.88;;
80187;SDS011;73735;52.134;5.436;2024-01-30T07:57:58;10.13;;;5.25;;
80187;SDS011;73735;52.134;5.436;2024-01-30T08:00:25;10.98;;;5.45;;
80187;SDS011;73735;52.134;5.436;2024-01-30T08:05:20;11.02;;;5.35;;
80187;SDS011;73735;52.134;5.436;2024-01-30T08:07:49;11.70;;;5.40;;
80187;SDS011;73735;52.134;5.436;2024-01-30T08:10:15;10.23;;;5.68;;
80187;SDS011;73735;52.134;5.436;2024-01-30T08:12:44;10.25;;;5.13;;
80187;SDS011;73735;52.134;5.436;2024-01-30T08:15:11;9.80;;;5.57;;
80187;SDS011;73735;52.134;5.436;2024-01-30T08:17:38;10.88;;;5.93;;
80187;SDS011;73735;52.134;5.436;2024-01-30T08:20:05;14.77;;;6.53;;
80187;SDS011;73735;52.134;5.436;2024-01-30T08:22:33;12.80;;;6.13;;
80187;SDS011;73735;52.134;5.436;2024-01-30T08:25:00;11.27;;;5.80;;
80187;SDS011;73735;52.134;5.436;2024-01-30T08:27:27;12.32;;;5.63;;
80187;SDS011;73735;52.134;5.436;2024-01-30T08:29:53;10.73;;;5.90;;
80187;SDS011;73735;52.134;5.436;2024-01-30T08:32:19;10.75;;;5.07;;
80187;SDS011;73735;52.134;5.436;2024-01-30T08:34:46;9.43;;;4.90;;
80187;SDS011;73735;52.134;5.436;2024-01-30T08:37:13;9.88;;;5.38;;
80187;SDS011;73735;52.134;5.436;2024-01-30T08:39:43;9.63;;;4.80;;
80187;SDS011;73735;52.134;5.436;2024-01-30T08:42:10;9.88;;;5.05;;
80187;SDS011;73735;52.134;5.436;2024-01-30T08:44:36;9.18;;;5.15;;
80187;SDS011;73735;52.134;5.436;2024-01-30T08:47:04;8.77;;;4.50;;
80187;SDS011;73735;52.134;5.436;2024-01-30T08:49:31;10.90;;;4.88;;
80187;SDS011;73735;52.134;5.436;2024-01-30T08:51:58;10.57;;;5.28;;
80187;SDS011;73735;52.134;5.436;2024-01-30T08:54:24;11.50;;;5.60;;
80187;SDS011;73735;52.134;5.436;2024-01-30T08:56:51;11.48;;;5.82;;
80187;SDS011;73735;52.134;5.436;2024-01-30T08:59:19;12.95;;;5.93;;
80187;SDS011;73735;52.134;5.436;2024-01-30T09:01:45;11.63;;;5.78;;
80187;SDS011;73735;52.134;5.436;2024-01-30T09:04:28;11.80;;;5.38;;
80187;SDS011;73735;52.134;5.436;2024-01-30T09:06:55;13.80;;;5.75;;
80187;SDS011;73735;52.134;5.436;2024-01-30T09:09:22;14.38;;;5.93;;
80187;SDS011;73735;52.134;5.436;2024-01-30T09:11:48;9.93;;;5.00;;
80187;SDS011;73735;52.134;5.436;2024-01-30T09:14:15;11.43;;;5.32;;
80187;SDS011;73735;52.134;5.436;2024-01-30T09:16:41;11.35;;;5.43;;
80187;SDS011;73735;52.134;5.436;2024-01-30T09:19:08;13.02;;;5.70;;
80187;SDS011;73735;52.134;5.436;2024-01-30T09:21:34;11.63;;;5.53;;
80187;SDS011;73735;52.134;5.436;2024-01-30T09:24:01;13.40;;;5.97;;
80187;SDS011;73735;52.134;5.436;2024-01-30T09:26:31;10.35;;;5.72;;
80187;SDS011;73735;52.134;5.436;2024-01-30T09:28:58;12.75;;;5.65;;
80187;SDS011;73735;52.134;5.436;2024-01-30T09:31:24;12.40;;;5.80;;
80187;SDS011;73735;52.134;5.436;2024-01-30T09:33:51;14.05;;;5.53;;
80187;SDS011;73735;52.134;5.436;2024-01-30T09:36:20;11.48;;;5.82;;
80187;SDS011;73735;52.134;5.436;2024-01-30T09:38:47;15.50;;;5.78;;
80187;SDS011;73735;52.134;5.436;2024-01-30T09:41:13;11.05;;;5.82;;
80187;SDS011;73735;52.134;5.436;2024-01-30T09:43:41;12.80;;;6.28;;
80187;SDS011;73735;52.134;5.436;2024-01-30T09:46:12;12.07;;;5.35;;
80187;SDS011;73735;52.134;5.436;2024-01-30T09:48:41;12.85;;;5.63;;
80187;SDS011;73735;52.134;5.436;2024-01-30T09:51:09;12.25;;;5.50;;
80187;SDS011;73735;52.134;5.436;2024-01-30T09:53:36;13.50;;;6.00;;
80187;SDS011;73735;52.134;5.436;2024-01-30T09:56:03;11.80;;;5.75;;
80187;SDS011;73735;52.134;5.436;2024-01-30T09:58:31;14.07;;;5.50;;
80187;SDS011;73735;52.134;5.436;2024-01-30T10:00:58;14.43;;;5.82;;
80187;SDS011;73735;52.134;5.436;2024-01-30T10:03:25;15.70;;;5.90;;
80187;SDS011;73735;52.134;5.436;2024-01-30T10:05:52;11.20;;;5.70;;
80187;SDS011;73735;52.134;5.436;2024-01-30T10:08:19;12.13;;;6.00;;
80187;SDS011;73735;52.134;5.436;2024-01-30T10:10:49;12.32;;;5.88;;
80187;SDS011;73735;52.134;5.436;2024-01-30T10:13:16;12.18;;;5.55;;
80187;SDS011;73735;52.134;5.436;2024-01-30T10:15:43;12.82;;;5.90;;
80187;SDS011;73735;52.134;5.436;2024-01-30T10:18:11;12.30;;;6.22;;
80187;SDS011;73735;52.134;5.436;2024-01-30T10:20:37;11.27;;;5.43;;
80187;SDS011;73735;52.134;5.436;2024-01-30T10:23:04;13.40;;;5.95;;
80187;SDS011;73735;52.134;5.436;2024-01-30T10:25:31;9.63;;;5.32;;
80187;SDS011;73735;52.134;5.436;2024-01-30T10:27:58;13.95;;;5.93;;
80187;SDS011;73735;52.134;5.436;2024-01-30T10:30:25;12.10;;;6.07;;
80187;SDS011;73735;52.134;5.436;2024-01-30T10:32:51;14.30;;;5.43;;
80187;SDS011;73735;52.134;5.436;2024-01-30T10:35:18;14.38;;;6.22;;
80187;SDS011;73735;52.134;5.436;2024-01-30T10:37:48;13.23;;;5.85;;
80187;SDS011;73735;52.134;5.436;2024-01-30T10:40:15;13.65;;;5.78;;
80187;SDS011;73735;52.134;5.436;2024-01-30T10:42:43;12.50;;;5.75;;
80187;SDS011;73735;52.134;5.436;2024-01-30T10:45:12;9.68;;;5.57;;
80187;SDS011;73735;52.134;5.436;2024-01-30T10:47:40;11.35;;;5.15;;
80187;SDS011;73735;52.134;5.436;2024-01-30T10:50:09;11.32;;;5.47;;
80187;SDS011;73735;52.134;5.436;2024-01-30T10:52:37;11.88;;;6.40;;
80187;SDS011;73735;52.134;5.436;2024-01-30T10:55:04;11.35;;;5.85;;
80187;SDS011;73735;52.134;5.436;2024-01-30T10:57:34;11.43;;;6.32;;
80187;SDS011;73735;52.134;5.436;2024-01-30T11:00:08;11.30;;;5.30;;
80187;SDS011;73735;52.134;5.436;2024-01-30T11:02:41;13.05;;;5.60;;
80187;SDS011;73735;52.134;5.436;2024-01-30T11:05:10;9.35;;;5.28;;
80187;SDS011;73735;52.134;5.436;2024-01-30T11:07:38;13.02;;;5.18;;
80187;SDS011;73735;52.134;5.436;2024-01-30T11:10:07;12.27;;;5.22;;
80187;SDS011;73735;52.134;5.436;2024-01-30T11:12:39;10.65;;;4.85;;
80187;SDS011;73735;52.134;5.436;2024-01-30T11:15:12;15.40;;;5.35;;
80187;SDS011;73735;52.134;5.436;2024-01-30T11:20:16;10.25;;;4.65;;
80187;SDS011;73735;52.134;5.436;2024-01-30T11:22:46;10.00;;;5.32;;
80187;SDS011;73735;52.134;5.436;2024-01-30T11:25:14;10.02;;;4.80;;
80187;SDS011;73735;52.134;5.436;2024-01-30T11:27:42;10.95;;;4.50;;
80187;SDS011;73735;52.134;5.436;2024-01-30T11:30:10;9.95;;;4.80;;
80187;SDS011;73735;52.134;5.436;2024-01-30T11:32:37;10.23;;;4.53;;
80187;SDS011;73735;52.134;5.436;2024-01-30T11:35:04;9.82;;;4.68;;
80187;SDS011;73735;52.134;5.436;2024-01-30T11:37:32;8.02;;;3.90;;
80187;SDS011;73735;52.134;5.436;2024-01-30T11:40:04;6.57;;;3.40;;
80187;SDS011;73735;52.134;5.436;2024-01-30T11:42:30;9.63;;;3.53;;
80187;SDS011;73735;52.134;5.436;2024-01-30T11:44:59;6.20;;;2.88;;
80187;SDS011;73735;52.134;5.436;2024-01-30T11:47:27;10.10;;;2.70;;
80187;SDS011;73735;52.134;5.436;2024-01-30T11:49:54;6.47;;;2.40;;
80187;SDS011;73735;52.134;5.436;2024-01-30T11:52:24;8.65;;;2.20;;
80187;SDS011;73735;52.134;5.436;2024-01-30T11:54:51;6.63;;;2.05;;
80187;SDS011;73735;52.134;5.436;2024-01-30T11:57:18;4.63;;;1.67;;
80187;SDS011;73735;52.134;5.436;2024-01-30T11:59:44;6.75;;;2.00;;
80187;SDS011;73735;52.134;5.436;2024-01-30T12:02:15;6.00;;;1.38;;
80187;SDS011;73735;52.134;5.436;2024-01-30T12:04:42;5.10;;;1.30;;
80187;SDS011;73735;52.134;5.436;2024-01-30T12:07:09;5.38;;;1.50;;
80187;SDS011;73735;52.134;5.436;2024-01-30T12:09:36;4.82;;;1.35;;
80187;SDS011;73735;52.134;5.436;2024-01-30T12:12:02;5.03;;;1.33;;
80187;SDS011;73735;52.134;5.436;2024-01-30T12:14:29;5.50;;;1.30;;
80187;SDS011;73735;52.134;5.436;2024-01-30T12:16:55;4.10;;;1.33;;
80187;SDS011;73735;52.134;5.436;2024-01-30T12:19:25;5.10;;;1.25;;
80187;SDS011;73735;52.134;5.436;2024-01-30T12:21:58;5.35;;;1.60;;
80187;SDS011;73735;52.134;5.436;2024-01-30T12:26:56;4.60;;;1.52;;
80187;SDS011;73735;52.134;5.436;2024-01-30T12:29:24;4.18;;;1.40;;
80187;SDS011;73735;52.134;5.436;2024-01-30T12:31:54;4.80;;;1.92;;
80187;SDS011;73735;52.134;5.436;2024-01-30T12:34:21;4.75;;;2.30;;
80187;SDS011;73735;52.134;5.436;2024-01-30T12:36:48;5.65;;;2.10;;
80187;SDS011;73735;52.134;5.436;2024-01-30T12:39:15;6.70;;;2.28;;
80187;SDS011;73735;52.134;5.436;2024-01-30T12:41:42;6.57;;;2.40;;
80187;SDS011;73735;52.134;5.436;2024-01-30T12:44:08;8.45;;;2.22;;
80187;SDS011;73735;52.134;5.436;2024-01-30T12:46:35;5.13;;;2.20;;
80187;SDS011;73735;52.134;5.436;2024-01-30T12:49:01;5.30;;;1.88;;
80187;SDS011;73735;52.134;5.436;2024-01-30T12:51:28;6.55;;;2.10;;
80187;SDS011;73735;52.134;5.436;2024-01-30T12:53:55;7.78;;;2.10;;
80187;SDS011;73735;52.134;5.436;2024-01-30T12:56:22;4.78;;;1.60;;
80187;SDS011;73735;52.134;5.436;2024-01-30T12:58:48;6.38;;;2.30;;
80187;SDS011;73735;52.134;5.436;2024-01-30T13:01:19;5.07;;;2.00;;
80187;SDS011;73735;52.134;5.436;2024-01-30T13:03:45;4.63;;;2.00;;
80187;SDS011;73735;52.134;5.436;2024-01-30T13:08:39;6.55;;;1.85;;
80187;SDS011;73735;52.134;5.436;2024-01-30T13:11:05;6.78;;;2.28;;
80187;SDS011;73735;52.134;5.436;2024-01-30T13:13:42;5.35;;;2.00;;
80187;SDS011;73735;52.134;5.436;2024-01-30T13:16:09;4.68;;;1.48;;
80187;SDS011;73735;52.134;5.436;2024-01-30T13:18:36;4.53;;;1.60;;
80187;SDS011;73735;52.134;5.436;2024-01-30T13:21:02;4.47;;;1.35;;
80187;SDS011;73735;52.134;5.436;2024-01-30T13:23:29;4.60;;;1.27;;
80187;SDS011;73735;52.134;5.436;2024-01-30T13:25:55;3.95;;;1.60;;
80187;SDS011;73735;52.134;5.436;2024-01-30T13:28:24;4.97;;;1.42;;
80187;SDS011;73735;52.134;5.436;2024-01-30T13:33:18;4.55;;;1.33;;
80187;SDS011;73735;52.134;5.436;2024-01-30T13:35:45;5.93;;;1.30;;
80187;SDS011;73735;52.134;5.436;2024-01-30T13:38:12;3.53;;;1.10;;
80187;SDS011;73735;52.134;5.436;2024-01-30T13:40:39;3.90;;;1.20;;
80187;SDS011;73735;52.134;5.436;2024-01-30T13:43:06;4.75;;;1.40;;
80187;SDS011;73735;52.134;5.436;2024-01-30T13:45:33;3.08;;;1.10;;
80187;SDS011;73735;52.134;5.436;2024-01-30T13:47:59;3.10;;;0.90;;
80187;SDS011;73735;52.134;5.436;2024-01-30T13:50:26;4.97;;;1.15;;
80187;SDS011;73735;52.134;5.436;2024-01-30T13:52:52;5.93;;;1.38;;
80187;SDS011;73735;52.134;5.436;2024-01-30T13:55:19;2.75;;;0.95;;
80187;SDS011;73735;52.134;5.436;2024-01-30T13:57:46;3.72;;;1.10;;
80187;SDS011;73735;52.134;5.436;2024-01-30T14:00:15;4.45;;;0.90;;
80187;SDS011;73735;52.134;5.436;2024-01-30T14:02:43;5.13;;;1.20;;
80187;SDS011;73735;52.134;5.436;2024-01-30T14:05:09;3.20;;;0.98;;
80187;SDS011;73735;52.134;5.436;2024-01-30T14:07:36;5.63;;;2.45;;
80187;SDS011;73735;52.134;5.436;2024-01-30T14:10:05;4.50;;;1.00;;
80187;SDS011;73735;52.134;5.436;2024-01-30T14:12:37;3.33;;;1.02;;
80187;SDS011;73735;52.134;5.436;2024-01-30T14:15:03;3.95;;;1.20;;
80187;SDS011;73735;52.134;5.436;2024-01-30T14:17:45;4.32;;;1.10;;
80187;SDS011;73735;52.134;5.436;2024-01-30T14:20:14;2.72;;;0.90;;
80187;SDS011;73735;52.134;5.436;2024-01-30T14:22:44;4.50;;;1.10;;
80187;SDS011;73735;52.134;5.436;2024-01-30T14:25:12;4.72;;;0.90;;
80187;SDS011;73735;52.134;5.436;2024-01-30T14:27:38;3.15;;;0.95;;
80187;SDS011;73735;52.134;5.436;2024-01-30T14:30:05;3.33;;;1.23;;
80187;SDS011;73735;52.134;5.436;2024-01-30T14:32:32;4.80;;;1.17;;
80187;SDS011;73735;52.134;5.436;2024-01-30T14:35:02;4.65;;;0.90;;
80187;SDS011;73735;52.134;5.436;2024-01-30T14:37:29;5.18;;;1.30;;
80187;SDS011;73735;52.134;5.436;2024-01-30T14:39:56;7.07;;;1.05;;
80187;SDS011;73735;52.134;5.436;2024-01-30T14:42:22;5.00;;;1.23;;
80187;SDS011;73735;52.134;5.436;2024-01-30T14:44:49;6.60;;;1.50;;
80187;SDS011;73735;52.134;5.436;2024-01-30T14:47:15;4.10;;;1.55;;
80187;SDS011;73735;52.134;5.436;2024-01-30T14:49:42;4.65;;;1.40;;
80187;SDS011;73735;52.134;5.436;2024-01-30T14:52:09;4.82;;;1.30;;
80187;SDS011;73735;52.134;5.436;2024-01-30T14:54:37;3.47;;;1.30;;
80187;SDS011;73735;52.134;5.436;2024-01-30T14:57:04;3.80;;;1.52;;
80187;SDS011;73735;52.134;5.436;2024-01-30T14:59:31;4.95;;;1.58;;